Time;durP1;ratioP1;P1;durP2;ratioP2;P2;SDS_P1;SDS_P2;PMS_P1;PMS_P2;Temp;Humidity;BMP_temperature;BMP_pressure;BME280_temperature;BME280_humidity;BME280_pressure;Samples;Min_cycle;Max_cycle;Signal;HPM_P1;HPM_P2
2022/04/10 00:05:15;;;;;;;;;;;;;;;;;;20985676;28;19924;-70
2022/04/10 00:15:18;;;;;;;;;;;;;;;;;;21003234;28;19967;-70
2022/04/10 00:25:20;;;;;;;;;;;;;;;;;;21002519;28;20007;-70
2022/04/10 00:35:22;;;;;;;;;;;;;;;;;;21001170;28;19967;-69
2022/04/10 00:45:24;;;;;;;;;;;;;;;;;;21000882;28;19920;-70
2022/04/10 00:55:26;;;;;;;;;;;;;;;;;;21000428;28;20010;-69
2022/04/10 01:05:28;;;;;;;;;;;;;;;;;;20984160;28;19920;-67
2022/04/10 01:15:31;;;;;;;;;;;;;;;;;;21007922;28;19935;-70
2022/04/10 01:25:36;;;;;;;;;;;;;;;;;;20997313;28;19970;-70
2022/04/10 01:35:39;;;;;;;;;;;;;;;;;;20996581;28;19927;-68
2022/04/10 01:45:48;;;;;;;;;;;;;;;;;;20996145;28;19920;-68
2022/04/10 01:56:04;;;;;;;;;;;;;;;;;;20995471;28;20341;-69
2022/04/10 02:06:11;;;;;;;;;;;;;;;;;;20995135;28;19946;-69
2022/04/10 02:16:17;;;;;;;;;;;;;;;;;;20978107;28;19931;-68
2022/04/10 02:26:22;;;;;;;;;;;;;;;;;;20995937;28;19921;-69
2022/04/10 02:36:26;;;;;;;;;;;;;;;;;;20994490;28;19946;-68
2022/04/10 02:46:30;;;;;;;;;;;;;;;;;;20993301;28;19927;-69
2022/04/10 02:56:33;;;;;;;;;;;;;;;;;;20993528;28;19927;-70
2022/04/10 03:06:37;;;;;;;;;;;;;;;;;;20992632;28;19943;-68
2022/04/10 03:16:40;;;;;;;;;;;;;;;;;;20993340;28;19920;-69
2022/04/10 03:26:43;;;;;;;;;;;;;;;;;;20992564;28;20281;-68
2022/04/10 03:36:46;;;;;;;;;;;;;;;;;;20988184;28;19943;-67
2022/04/10 03:46:49;;;;;;;;;;;;;;;;;;21005011;28;19921;-68
2022/04/10 03:56:51;;;;;;;;;;;;;;;;;;21004147;28;20289;-68
2022/04/10 04:06:53;;;;;;;;;;;;;;;;;;21004520;28;19925;-68
2022/04/10 04:16:57;;;;;;;;;;;;;;;;;;21004528;28;19921;-69
2022/04/10 04:27:00;;;;;;;;;;;;;;;;;;21002933;28;20370;-68
2022/04/10 04:37:02;;;;;;;;;;;;;;;;;;21001718;28;19946;-67
2022/04/10 04:47:04;;;;;;;;;;;;;;;;;;21000756;28;19928;-69
2022/04/10 04:57:07;;;;;;;;;;;;;;;;;;20982373;28;20332;-69
2022/04/10 05:07:09;;;;;;;;;;;;;;;;;;20999497;28;19920;-67
2022/04/10 05:17:11;;;;;;;;;;;;;;;;;;20998367;28;19959;-66
2022/04/10 05:27:13;;;;;;;;;;;;;;;;;;20997801;28;20022;-69
2022/04/10 05:37:16;;;;;;;;;;;;;;;;;;20997029;28;19927;-64
2022/04/10 05:47:19;;;;;;;;;;;;;;;;;;20996685;28;19978;-67
2022/04/10 05:57:21;;;;;;;;;;;;;;;;;;20995345;28;19920;-68
2022/04/10 06:07:23;;;;;;;;;;;;;;;;;;20995442;28;19966;-68
2022/04/10 06:17:26;;;;;;;;;;;;;;;;;;20995952;28;19927;-68
2022/04/10 06:27:28;;;;;;;;;;;;;;;;;;20996575;28;19924;-68
2022/04/10 06:37:30;;;;;;;;;;;;;;;;;;20994553;28;19920;-67
2022/04/10 06:47:32;;;;;;;;;;;;;;;;;;20994822;28;20313;-66
2022/04/10 06:57:34;;;;;;;;;;;;;;;;;;20994196;28;19973;-69
2022/04/10 07:07:35;;;;;;;;;;;;;;;;;;21003285;28;20413;-71
2022/04/10 07:17:38;;;;;;;;;;;;;;;;;;21008108;28;20019;-67
2022/04/10 07:27:40;;;;;;;;;;;;;;;;;;21007062;28;19920;-68
2022/04/10 07:37:41;;;;;;;;;;;;;;;;;;21007358;28;19920;-69
2022/04/10 07:47:43;;;;;;;;;;;;;;;;;;21006635;28;20340;-69
2022/04/10 07:57:45;;;;;;;;;;;;;;;;;;21005170;28;19920;-69
2022/04/10 08:07:47;;;;;;;;;;;;;;;;;;21004739;28;19928;-68
2022/04/10 08:17:50;;;;;;;;;;;;;;;;;;21004786;28;19924;-68
2022/04/10 08:27:52;;;;;;;;;;;;;;;;;;21002990;28;20023;-70
2022/04/10 08:37:54;;;;;;;;;;;;;;;;;;21001535;28;20020;-68
2022/04/10 08:47:56;;;;;;;;;;;;;;;;;;21001936;28;19974;-71
2022/04/10 08:57:58;;;;;;;;;;;;;;;;;;21001278;28;19926;-71
2022/04/10 09:07:59;;;;;;;;;;;;;;;;;;20990652;28;20003;-70
2022/04/10 09:18:03;;;;;;;;;;;;;;;;;;21000032;28;19920;-71
2022/04/10 09:28:05;;;;;;;;;;;;;;;;;;20999720;28;19971;-72
2022/04/10 09:38:07;;;;;;;;;;;;;;;;;;21000380;28;20007;-70
2022/04/10 09:48:09;;;;;;;;;;;;;;;;;;20998354;28;19970;-67
2022/04/10 09:58:11;;;;;;;;;;;;;;;;;;20996824;28;19920;-71
2022/04/10 10:08:15;;;;;;;;;;;;;;;;;;20998423;28;19928;-72
2022/04/10 10:18:19;;;;;;;;;;;;;;;;;;20999162;28;19931;-70
2022/04/10 10:28:20;;;;;;;;;;;;;;;;;;20995467;28;19928;-71
2022/04/10 10:38:25;;;;;;;;;;;;;;;;;;20998941;28;19985;-70
2022/04/10 10:48:28;;;;;;;;;;;;;;;;;;21012004;28;19931;-71
2022/04/10 10:58:32;;;;;;;;;;;;;;;;;;21010698;28;19920;-71
2022/04/10 11:08:34;;;;;;;;;;;;;;;;;;21010223;28;19920;-69
2022/04/10 11:18:37;;;;;;;;;;;;;;;;;;21008527;28;20451;-68
2022/04/10 11:28:39;;;;;;;;;;;;;;;;;;21009047;28;20370;-69
2022/04/10 11:38:42;;;;;;;;;;;;;;;;;;21006861;28;19920;-69
2022/04/10 11:48:44;;;;;;;;;;;;;;;;;;21005920;28;19960;-72
2022/04/10 11:58:46;;;;;;;;;;;;;;;;;;21005329;28;19921;-70
2022/04/10 12:08:48;;;;;;;;;;;;;;;;;;21004822;28;20279;-66
2022/04/10 12:18:50;;;;;;;;;;;;;;;;;;21004005;28;19925;-70
2022/04/10 12:28:53;;;;;;;;;;;;;;;;;;21003499;28;19921;-67
2022/04/10 12:38:55;;;;;;;;;;;;;;;;;;21016059;28;20301;-69
2022/04/10 12:48:57;;;;;;;;;;;;;;;;;;21015447;28;20363;-68
2022/04/10 12:58:59;;;;;;;;;;;;;;;;;;21000128;28;19921;-66
2022/04/10 13:09:02;;;;;;;;;;;;;;;;;;20998247;28;19921;-68
2022/04/10 13:19:05;;;;;;;;;;;;;;;;;;20998399;28;19920;-67
2022/04/10 13:29:07;;;;;;;;;;;;;;;;;;20997732;28;19962;-67
2022/04/10 13:39:11;;;;;;;;;;;;;;;;;;20996224;28;19977;-69
2022/04/10 13:49:14;;;;;;;;;;;;;;;;;;20996814;28;20404;-69
2022/04/10 13:59:17;;;;;;;;;;;;;;;;;;20996513;28;20380;-67
2022/04/10 14:09:19;;;;;;;;;;;;;;;;;;20995448;28;19977;-67
2022/04/10 14:19:21;;;;;;;;;;;;;;;;;;20994420;28;19928;-67
2022/04/10 14:29:23;;;;;;;;;;;;;;;;;;20994846;28;19946;-66
2022/04/10 14:39:25;;;;;;;;;;;;;;;;;;20994482;28;20367;-67
2022/04/10 14:49:27;;;;;;;;;;;;;;;;;;20993616;28;20046;-67
2022/04/10 14:59:29;;;;;;;;;;;;;;;;;;20974884;28;19924;-67
2022/04/10 15:09:31;;;;;;;;;;;;;;;;;;20974934;28;20019;-68
2022/04/10 15:19:33;;;;;;;;;;;;;;;;;;20992056;28;19920;-66
2022/04/10 15:29:35;;;;;;;;;;;;;;;;;;21003422;28;19989;-69
2022/04/10 15:39:38;;;;;;;;;;;;;;;;;;21006858;28;19925;-68
2022/04/10 15:49:41;;;;;;;;;;;;;;;;;;21005627;28;19982;-65
2022/04/10 15:59:42;;;;;;;;;;;;;;;;;;21006016;28;19963;-67
2022/04/10 16:09:44;;;;;;;;;;;;;;;;;;21004538;28;20003;-68
2022/04/10 16:19:46;;;;;;;;;;;;;;;;;;21003914;28;20353;-68
2022/04/10 16:40:09;;;;;;;;;;;;;;;;;;21001712;28;19928;-67
2022/04/10 16:50:12;;;;;;;;;;;;;;;;;;21001785;28;20422;-68
2022/04/10 17:00:13;;;;;;;;;;;;;;;;;;21001048;28;20015;-68
2022/04/10 17:10:15;;;;;;;;;;;;;;;;;;20982119;28;19927;-67
2022/04/10 17:20:17;;;;;;;;;;;;;;;;;;20999169;28;19927;-66
2022/04/10 17:30:19;;;;;;;;;;;;;;;;;;20997881;28;19932;-68
2022/04/10 17:40:20;;;;;;;;;;;;;;;;;;20997526;28;19921;-67
2022/04/10 17:50:22;;;;;;;;;;;;;;;;;;20996960;28;19928;-67
2022/04/10 18:00:24;;;;;;;;;;;;;;;;;;20978300;28;20014;-65
2022/04/10 18:10:26;;;;;;;;;;;;;;;;;;20995348;28;19920;-68
2022/04/10 18:20:27;;;;;;;;;;;;;;;;;;20995207;28;20011;-68
2022/04/10 18:30:31;;;;;;;;;;;;;;;;;;20993784;28;19924;-67
2022/04/10 18:40:33;;;;;;;;;;;;;;;;;;20994273;28;19920;-67
2022/04/10 18:50:35;;;;;;;;;;;;;;;;;;20994951;28;19928;-68
2022/04/10 19:00:37;;;;;;;;;;;;;;;;;;20998146;28;19999;-66
2022/04/10 19:10:38;;;;;;;;;;;;;;;;;;21008927;28;19930;-68
2022/04/10 19:20:40;;;;;;;;;;;;;;;;;;21008426;28;19978;-67
2022/04/10 19:30:42;;;;;;;;;;;;;;;;;;21008687;28;20293;-68
2022/04/10 19:40:44;;;;;;;;;;;;;;;;;;21008638;28;19981;-70
2022/04/10 19:50:46;;;;;;;;;;;;;;;;;;21005925;28;19978;-70
2022/04/10 20:00:48;;;;;;;;;;;;;;;;;;21005017;28;19967;-70
2022/04/10 20:10:50;;;;;;;;;;;;;;;;;;21004145;28;19931;-69
2022/04/10 20:20:53;;;;;;;;;;;;;;;;;;21004160;28;20011;-69
2022/04/10 20:30:55;;;;;;;;;;;;;;;;;;21002839;28;20011;-69
2022/04/10 20:40:57;;;;;;;;;;;;;;;;;;21002660;28;19920;-68
2022/04/10 20:50:59;;;;;;;;;;;;;;;;;;21002849;28;20321;-68
2022/04/10 21:01:01;;;;;;;;;;;;;;;;;;21000641;28;19921;-69
2022/04/10 21:11:04;;;;;;;;;;;;;;;;;;21000668;28;19924;-68
2022/04/10 21:21:06;;;;;;;;;;;;;;;;;;20998284;28;19924;-68
2022/04/10 21:31:09;;;;;;;;;;;;;;;;;;20998080;28;19920;-67
2022/04/10 21:41:11;;;;;;;;;;;;;;;;;;20998047;28;19920;-67
2022/04/10 21:51:13;;;;;;;;;;;;;;;;;;20978974;28;19920;-68
2022/04/10 22:01:15;;;;;;;;;;;;;;;;;;20996468;28;20393;-68
2022/04/10 22:11:17;;;;;;;;;;;;;;;;;;20995687;28;19946;-65
2022/04/10 22:21:20;;;;;;;;;;;;;;;;;;20995308;28;19924;-66
2022/04/10 22:31:21;;;;;;;;;;;;;;;;;;20994653;28;19920;-66
2022/04/10 22:41:23;;;;;;;;;;;;;;;;;;21004697;28;19920;-67
2022/04/10 22:51:26;;;;;;;;;;;;;;;;;;21022554;28;19921;-66
2022/04/10 23:01:29;;;;;;;;;;;;;;;;;;21021575;28;20366;-67
2022/04/10 23:11:31;;;;;;;;;;;;;;;;;;21021361;28;19920;-68
2022/04/10 23:21:33;;;;;;;;;;;;;;;;;;21021734;28;19943;-68
2022/04/10 23:31:35;;;;;;;;;;;;;;;;;;21020993;28;19920;-67
2022/04/10 23:41:36;;;;;;;;;;;;;;;;;;21019913;28;19938;-67
2022/04/10 23:51:38;;;;;;;;;;;;;;;;;;21007647;28;20282;-67
